Time;durP1;ratioP1;P1;durP2;ratioP2;P2;SDS_P1;SDS_P2;PMS_P1;PMS_P2;Temp;Humidity;BMP_temperature;BMP_pressure;BME280_temperature;BME280_humidity;BME280_pressure;Samples;Min_cycle;Max_cycle;Signal;HPM_P1;HPM_P2
2021/12/19 00:00:28;;;;;;;52.83;20.63;;;7.40;99.90;;;;;;5065877;28;20028;-74
2021/12/19 00:03:34;;;;;;;45.67;19.33;;;7.40;99.90;;;;;;5084063;28;20024;-73
2021/12/19 00:08:28;;;;;;;50.42;21.05;;;7.50;99.90;;;;;;5082689;28;20058;-74
2021/12/19 00:10:55;;;;;;;45.92;19.92;;;7.40;99.90;;;;;;5082730;28;20016;-75
2021/12/19 00:13:24;;;;;;;46.97;19.85;;;7.40;99.90;;;;;;5083930;28;20017;-74
2021/12/19 00:15:50;;;;;;;54.33;20.38;;;7.50;99.90;;;;;;5083635;28;20347;-73
2021/12/19 00:18:16;;;;;;;53.38;20.50;;;7.50;99.90;;;;;;5082670;28;20074;-74
2021/12/19 00:20:41;;;;;;;53.88;20.17;;;7.50;99.90;;;;;;5083161;28;20049;-74
2021/12/19 00:23:07;;;;;;;50.65;19.13;;;7.40;99.90;;;;;;5065599;28;20219;-73
2021/12/19 00:25:33;;;;;;;48.67;19.00;;;7.40;99.90;;;;;;5083376;28;20027;-73
2021/12/19 00:27:59;;;;;;;47.05;18.38;;;7.40;99.90;;;;;;5082113;28;20246;-73
2021/12/19 00:30:24;;;;;;;50.15;19.27;;;7.40;99.90;;;;;;5083371;28;20301;-73
2021/12/19 00:32:50;;;;;;;51.22;19.83;;;7.40;99.90;;;;;;5083198;28;20227;-73
2021/12/19 00:35:17;;;;;;;55.58;19.52;;;7.30;99.90;;;;;;5083508;28;20024;-73
2021/12/19 00:37:43;;;;;;;60.20;21.02;;;7.40;99.90;;;;;;5083516;28;20044;-73
2021/12/19 00:40:10;;;;;;;62.92;22.83;;;7.40;99.90;;;;;;5083463;28;20028;-73
2021/12/19 00:42:37;;;;;;;63.38;23.10;;;7.40;99.90;;;;;;5083799;28;20020;-73
2021/12/19 00:45:15;;;;;;;60.15;22.17;;;7.40;99.90;;;;;;5081864;28;20032;-73
2021/12/19 00:47:42;;;;;;;65.78;21.38;;;7.50;99.90;;;;;;5082058;28;20017;-73
2021/12/19 00:50:08;;;;;;;61.65;22.73;;;7.50;99.90;;;;;;5083179;28;20032;-73
2021/12/19 00:52:34;;;;;;;60.83;21.02;;;7.40;99.90;;;;;;5068978;28;20028;-74
2021/12/19 00:54:59;;;;;;;63.25;21.85;;;7.50;99.90;;;;;;5086023;28;20059;-73
2021/12/19 00:57:25;;;;;;;64.30;22.13;;;7.50;99.90;;;;;;5086524;28;20043;-73
2021/12/19 00:59:51;;;;;;;48.60;17.75;;;7.50;99.90;;;;;;5086692;28;20035;-73
2021/12/19 01:02:16;;;;;;;47.67;16.38;;;7.40;99.90;;;;;;5086915;28;20018;-73
2021/12/19 01:04:42;;;;;;;45.63;16.95;;;7.40;99.90;;;;;;5086400;28;20020;-72
2021/12/19 01:07:08;;;;;;;48.92;17.73;;;7.40;99.90;;;;;;5085511;28;20029;-73
2021/12/19 01:09:34;;;;;;;50.22;17.15;;;7.30;99.90;;;;;;5085388;28;20083;-72
2021/12/19 01:12:00;;;;;;;51.72;17.75;;;7.40;99.90;;;;;;5086648;28;20012;-72
2021/12/19 01:14:26;;;;;;;47.47;17.75;;;7.40;99.90;;;;;;5085363;28;20307;-74
2021/12/19 01:16:53;;;;;;;54.33;17.90;;;7.40;99.90;;;;;;5086688;28;20031;-74
2021/12/19 01:19:19;;;;;;;50.03;18.17;;;7.40;99.90;;;;;;5086236;28;20021;-74
2021/12/19 01:21:45;;;;;;;43.92;15.75;;;7.40;99.90;;;;;;5086455;28;20035;-73
2021/12/19 01:24:11;;;;;;;47.63;15.68;;;7.40;99.90;;;;;;5086605;28;20031;-73
2021/12/19 01:26:37;;;;;;;49.80;16.92;;;7.30;99.90;;;;;;5084803;28;20021;-73
2021/12/19 01:29:03;;;;;;;45.72;15.65;;;7.30;99.90;;;;;;5084948;28;20061;-74
2021/12/19 01:31:29;;;;;;;39.95;14.35;;;7.30;99.90;;;;;;5086327;28;20020;-73
2021/12/19 01:33:54;;;;;;;41.17;14.65;;;7.30;99.90;;;;;;5085994;28;20028;-73
2021/12/19 01:36:21;;;;;;;46.58;14.73;;;7.30;99.90;;;;;;5086034;28;20019;-73
2021/12/19 01:38:47;;;;;;;41.35;15.70;;;7.30;99.90;;;;;;5085112;28;20362;-73
2021/12/19 01:41:12;;;;;;;44.58;14.25;;;7.20;99.90;;;;;;5085986;28;20028;-73
2021/12/19 01:43:38;;;;;;;44.60;14.50;;;7.20;99.90;;;;;;5086113;28;20020;-73
2021/12/19 01:46:04;;;;;;;50.65;16.30;;;7.20;99.90;;;;;;5084188;28;20024;-72
2021/12/19 01:48:30;;;;;;;46.60;16.15;;;7.20;99.90;;;;;;5085688;28;20024;-73
2021/12/19 01:50:56;;;;;;;48.50;16.85;;;7.20;99.90;;;;;;5085888;28;20043;-73
2021/12/19 01:53:22;;;;;;;44.92;16.25;;;7.30;99.90;;;;;;5085870;28;20035;-73
2021/12/19 01:55:49;;;;;;;41.40;15.55;;;7.30;99.90;;;;;;5085460;28;20099;-73
2021/12/19 01:58:16;;;;;;;40.15;14.27;;;7.20;99.90;;;;;;5086010;28;20028;-73
2021/12/19 02:00:46;;;;;;;35.63;12.93;;;7.30;99.90;;;;;;5085237;28;20078;-73
2021/12/19 02:03:12;;;;;;;33.05;12.57;;;7.30;99.90;;;;;;5067777;28;20048;-73
2021/12/19 02:05:39;;;;;;;34.30;12.40;;;7.20;99.90;;;;;;5087709;28;20023;-74
2021/12/19 02:08:06;;;;;;;31.38;11.52;;;7.20;99.90;;;;;;5086954;28;20070;-72
2021/12/19 02:10:33;;;;;;;32.03;12.52;;;7.20;99.90;;;;;;5087795;28;20036;-72
2021/12/19 02:13:00;;;;;;;33.45;12.65;;;7.10;99.90;;;;;;5086906;28;20039;-74
2021/12/19 02:15:30;;;;;;;30.70;11.90;;;7.10;99.90;;;;;;5084288;28;20307;-73
2021/12/19 02:18:00;;;;;;;28.55;11.18;;;7.00;99.90;;;;;;5068111;28;20052;-74
2021/12/19 02:20:40;;;;;;;29.45;11.15;;;7.00;99.90;;;;;;5083509;28;20094;-74
2021/12/19 02:23:05;;;;;;;28.30;10.82;;;6.90;99.90;;;;;;5084573;28;20020;-73
2021/12/19 02:25:32;;;;;;;29.85;10.95;;;7.00;99.90;;;;;;5085292;28;20247;-74
2021/12/19 02:27:58;;;;;;;27.55;10.45;;;7.00;99.90;;;;;;5067449;28;20024;-73
2021/12/19 02:30:24;;;;;;;30.55;11.80;;;7.00;99.90;;;;;;5083661;28;20029;-73
2021/12/19 02:32:49;;;;;;;30.90;11.77;;;7.00;99.90;;;;;;5085027;28;20319;-73
2021/12/19 02:35:21;;;;;;;27.40;10.55;;;7.00;99.90;;;;;;5084096;28;20013;-73
2021/12/19 02:48:47;;;;;;;25.52;10.40;;;7.00;99.90;;;;;;5097290;28;20084;-73
2021/12/19 02:51:13;;;;;;;33.83;12.68;;;7.00;99.90;;;;;;5096134;28;20028;-73
2021/12/19 02:53:41;;;;;;;31.65;12.07;;;7.00;99.90;;;;;;5094048;28;20024;-73
2021/12/19 02:56:10;;;;;;;31.83;11.93;;;7.00;99.90;;;;;;5090653;28;20020;-74
2021/12/19 02:58:38;;;;;;;35.88;12.85;;;7.00;99.90;;;;;;5085431;28;20066;-73
2021/12/19 03:01:07;;;;;;;29.42;11.52;;;7.10;99.90;;;;;;5083581;28;20372;-74
2021/12/19 03:03:33;;;;;;;26.92;11.48;;;7.10;99.90;;;;;;5084667;28;20083;-74
2021/12/19 03:06:01;;;;;;;29.38;11.93;;;7.10;99.90;;;;;;5083294;28;20044;-74
2021/12/19 03:08:26;;;;;;;32.05;12.50;;;7.00;99.90;;;;;;5084394;28;20216;-74
2021/12/19 03:11:26;;;;;;;35.10;13.50;;;7.00;99.90;;;;;;5083261;28;20085;-73
2021/12/19 03:19:11;;;;;;;30.30;12.50;;;6.90;99.90;;;;;;5083169;28;20334;-73
2021/12/19 03:21:36;;;;;;;35.33;14.02;;;6.90;99.90;;;;;;5084150;28;20035;-73
2021/12/19 03:24:03;;;;;;;31.73;14.15;;;6.90;99.90;;;;;;5084411;28;20212;-73
2021/12/19 03:26:29;;;;;;;34.65;14.20;;;6.90;99.90;;;;;;5083830;28;20199;-73
2021/12/19 03:28:55;;;;;;;33.05;13.70;;;6.90;99.90;;;;;;5084088;28;20025;-73
2021/12/19 03:31:20;;;;;;;33.35;13.98;;;6.90;99.90;;;;;;5084036;28;20047;-72
2021/12/19 03:33:46;;;;;;;33.55;14.52;;;6.90;99.90;;;;;;5084147;28;20295;-74
2021/12/19 03:36:12;;;;;;;39.15;15.07;;;6.80;99.90;;;;;;5083120;28;20023;-73
2021/12/19 03:38:41;;;;;;;33.50;14.27;;;6.80;99.90;;;;;;5083292;28;20090;-73
2021/12/19 03:41:19;;;;;;;37.15;13.93;;;6.80;99.90;;;;;;5082647;28;20036;-73
2021/12/19 03:43:46;;;;;;;33.10;13.60;;;6.80;99.90;;;;;;5083091;28;20017;-73
2021/12/19 03:46:12;;;;;;;33.78;14.02;;;6.80;99.90;;;;;;5081715;28;20016;-73
2021/12/19 03:48:38;;;;;;;33.00;14.35;;;6.90;99.90;;;;;;5083034;28;20028;-73
2021/12/19 03:51:04;;;;;;;36.85;15.35;;;6.90;99.90;;;;;;5083928;28;20031;-74
2021/12/19 03:53:30;;;;;;;36.92;15.82;;;6.90;99.90;;;;;;5083815;28;20016;-73
2021/12/19 03:55:56;;;;;;;37.65;14.90;;;7.00;99.90;;;;;;5083741;28;20031;-73
2021/12/19 03:58:21;;;;;;;36.92;15.48;;;6.90;99.90;;;;;;5066088;28;20029;-73
2021/12/19 04:00:49;;;;;;;40.80;15.98;;;7.00;99.90;;;;;;5083630;28;20028;-73
2021/12/19 04:03:19;;;;;;;35.83;15.30;;;7.00;99.90;;;;;;5083936;28;20051;-73
2021/12/19 04:05:46;;;;;;;35.17;15.98;;;7.00;99.90;;;;;;5082769;28;20023;-74
2021/12/19 04:08:12;;;;;;;38.95;15.98;;;7.00;99.90;;;;;;5066216;28;20016;-73
2021/12/19 04:10:38;;;;;;;37.45;13.23;;;7.00;99.90;;;;;;5049319;28;20319;-73
2021/12/19 04:13:05;;;;;;;31.33;11.90;;;7.00;99.90;;;;;;5083656;28;20024;-73
2021/12/19 04:15:30;;;;;;;28.27;11.80;;;6.80;99.90;;;;;;5082812;28;20092;-73
2021/12/19 04:17:56;;;;;;;28.83;11.80;;;6.80;99.90;;;;;;5083680;28;20207;-73
2021/12/19 04:20:22;;;;;;;25.70;9.90;;;6.80;99.90;;;;;;5083703;28;20069;-72
2021/12/19 04:22:50;;;;;;;24.05;9.82;;;6.70;99.90;;;;;;5065959;28;20026;-73
2021/12/19 04:25:16;;;;;;;24.85;9.45;;;6.70;99.90;;;;;;5082946;28;20311;-74
2021/12/19 04:27:43;;;;;;;23.70;8.43;;;6.70;99.90;;;;;;5086221;28;20031;-73
2021/12/19 04:30:12;;;;;;;22.90;8.90;;;6.60;99.90;;;;;;5087601;28;20028;-73
2021/12/19 04:32:43;;;;;;;24.23;9.88;;;6.70;99.90;;;;;;5086217;28;20082;-72
2021/12/19 04:35:10;;;;;;;26.40;9.27;;;6.70;99.90;;;;;;5087558;28;20092;-72
2021/12/19 04:38:08;;;;;;;24.33;8.98;;;6.60;99.90;;;;;;5087445;28;20021;-74
2021/12/19 04:40:27;;;;;;;23.35;8.93;;;6.60;99.90;;;;;;5086342;28;20033;-72
2021/12/19 04:44:10;;;;;;;27.95;10.50;;;6.60;99.90;;;;;;5087029;28;20074;-73
2021/12/19 04:54:16;;;;;;;22.08;8.30;;;6.50;99.90;;;;;;5079812;28;20032;-73
2021/12/19 04:56:52;;;;;;;19.35;7.20;;;6.50;99.90;;;;;;5079520;28;20032;-73
2021/12/19 05:05:20;;;;;;;17.13;6.43;;;6.50;99.90;;;;;;5079913;28;20017;-73
2021/12/19 05:15:53;;;;;;;17.63;6.97;;;6.60;99.90;;;;;;5065894;28;20288;-73
2021/12/19 05:18:22;;;;;;;18.52;7.32;;;6.60;99.90;;;;;;5066640;28;20058;-73
2021/12/19 05:20:58;;;;;;;18.05;7.25;;;6.60;99.90;;;;;;5081157;28;20040;-73
2021/12/19 05:23:37;;;;;;;14.60;6.35;;;6.60;99.90;;;;;;5066409;28;20021;-73
2021/12/19 05:26:03;;;;;;;17.40;6.82;;;6.50;99.90;;;;;;5065930;28;20096;-73
2021/12/19 05:28:29;;;;;;;17.17;6.65;;;6.50;99.90;;;;;;5066349;28;20070;-73
2021/12/19 05:30:56;;;;;;;16.92;7.25;;;6.40;99.90;;;;;;5068639;28;20080;-73
2021/12/19 05:33:22;;;;;;;16.45;6.63;;;6.40;99.90;;;;;;5086227;28;20024;-73
2021/12/19 05:46:53;;;;;;;16.08;6.47;;;6.20;99.90;;;;;;5085098;28;20020;-72
2021/12/19 05:49:19;;;;;;;15.20;5.53;;;6.20;99.90;;;;;;5084183;28;20095;-72
2021/12/19 05:51:45;;;;;;;12.48;5.32;;;6.10;99.90;;;;;;5068098;28;20085;-73
2021/12/19 05:54:11;;;;;;;14.15;5.50;;;6.10;99.90;;;;;;5086975;28;20056;-73
2021/12/19 05:56:37;;;;;;;13.00;5.70;;;6.10;99.90;;;;;;5098163;28;20015;-73
2021/12/19 05:59:02;;;;;;;12.40;5.90;;;6.10;99.90;;;;;;5096572;28;20084;-73
2021/12/19 06:01:28;;;;;;;14.75;6.18;;;6.20;99.90;;;;;;5096281;28;20029;-72
2021/12/19 06:03:54;;;;;;;16.85;6.60;;;6.10;99.90;;;;;;5093154;28;20035;-73
2021/12/19 06:06:19;;;;;;;12.70;5.90;;;6.10;99.90;;;;;;5089423;28;20020;-73
2021/12/19 06:08:46;;;;;;;14.65;6.68;;;6.10;99.90;;;;;;5085812;28;20016;-73
2021/12/19 06:11:12;;;;;;;15.02;6.28;;;6.20;99.90;;;;;;5085692;28;20016;-73
2021/12/19 06:13:38;;;;;;;14.13;6.70;;;6.10;99.90;;;;;;5085114;28;20207;-73
2021/12/19 06:16:05;;;;;;;14.77;6.03;;;6.10;99.90;;;;;;5085462;28;20044;-72
2021/12/19 06:18:31;;;;;;;10.52;5.30;;;6.00;99.90;;;;;;5085414;28;20066;-72
2021/12/19 06:20:57;;;;;;;16.05;5.80;;;6.00;99.90;;;;;;5085310;28;20107;-72
2021/12/19 06:23:22;;;;;;;12.48;5.30;;;6.00;99.90;;;;;;5084192;28;20287;-73
2021/12/19 06:25:48;;;;;;;12.75;5.03;;;6.10;99.90;;;;;;5085317;28;20028;-73
2021/12/19 06:28:16;;;;;;;13.38;5.35;;;6.10;99.90;;;;;;5083692;28;20316;-73
2021/12/19 06:30:43;;;;;;;9.95;4.65;;;6.10;99.90;;;;;;5085214;28;20126;-73
2021/12/19 06:33:08;;;;;;;9.40;4.18;;;6.10;99.90;;;;;;5085073;28;20032;-73
2021/12/19 06:35:34;;;;;;;10.45;5.18;;;6.10;99.90;;;;;;5084949;28;20024;-73
2021/12/19 06:38:00;;;;;;;11.20;4.63;;;6.00;99.90;;;;;;5085283;28;20173;-72
2021/12/19 06:40:27;;;;;;;9.52;3.70;;;6.00;99.90;;;;;;5084955;28;20095;-73
2021/12/19 06:42:52;;;;;;;13.52;4.85;;;6.00;99.90;;;;;;5084929;28;20029;-73
2021/12/19 06:45:20;;;;;;;11.02;4.38;;;6.00;99.90;;;;;;5083298;28;20036;-72
2021/12/19 06:47:46;;;;;;;13.50;5.07;;;6.00;99.90;;;;;;5084790;28;20070;-72
2021/12/19 06:50:12;;;;;;;7.05;3.90;;;6.10;99.90;;;;;;5083207;28;20020;-73
2021/12/19 06:52:39;;;;;;;9.32;5.00;;;6.00;99.90;;;;;;5084592;28;20040;-72
2021/12/19 06:55:06;;;;;;;13.45;4.80;;;6.00;99.90;;;;;;5084364;28;20024;-73
2021/12/19 06:57:32;;;;;;;12.98;6.07;;;6.00;99.90;;;;;;5084242;28;20016;-73
2021/12/19 06:59:59;;;;;;;15.55;6.00;;;6.00;99.90;;;;;;5084572;28;20028;-74
2021/12/19 07:02:25;;;;;;;13.27;6.00;;;6.10;99.90;;;;;;5084405;28;20022;-72
2021/12/19 07:04:51;;;;;;;16.35;6.25;;;6.10;99.90;;;;;;5084548;28;20023;-73
2021/12/19 07:07:16;;;;;;;10.32;5.35;;;6.20;99.90;;;;;;5084497;28;20017;-73
2021/12/19 07:09:42;;;;;;;9.60;4.57;;;6.20;99.90;;;;;;5083439;28;20029;-73
2021/12/19 07:12:08;;;;;;;5.60;3.50;;;6.10;99.90;;;;;;5084351;28;20027;-72
2021/12/19 07:14:35;;;;;;;4.28;2.50;;;5.90;99.90;;;;;;5083088;28;20023;-73
2021/12/19 07:17:01;;;;;;;2.67;2.05;;;5.80;99.90;;;;;;5066738;28;20263;-72
2021/12/19 07:19:27;;;;;;;3.78;2.70;;;5.70;99.90;;;;;;5084007;28;20059;-73
2021/12/19 07:21:52;;;;;;;3.40;2.65;;;5.60;99.90;;;;;;5083114;28;20205;-73
2021/12/19 07:24:18;;;;;;;4.28;2.67;;;5.50;99.90;;;;;;5084238;28;20062;-73
2021/12/19 07:26:44;;;;;;;4.68;3.13;;;5.50;99.90;;;;;;5083737;28;20032;-73
2021/12/19 07:29:10;;;;;;;5.10;2.70;;;5.50;99.90;;;;;;5084234;28;20035;-72
2021/12/19 07:31:37;;;;;;;4.43;2.97;;;5.50;99.90;;;;;;5082842;28;20024;-73
2021/12/19 07:34:04;;;;;;;4.85;3.10;;;5.40;99.90;;;;;;5083806;28;20065;-72
2021/12/19 07:36:37;;;;;;;5.22;2.90;;;5.30;99.90;;;;;;5083955;28;20184;-73
2021/12/19 07:39:13;;;;;;;5.90;3.08;;;5.30;99.90;;;;;;5082977;28;20326;-73
2021/12/19 07:41:39;;;;;;;4.07;2.90;;;5.40;99.90;;;;;;5082562;28;20025;-72
2021/12/19 07:44:07;;;;;;;3.58;2.17;;;5.30;99.90;;;;;;5084109;28;20028;-73
2021/12/19 07:46:32;;;;;;;2.75;2.15;;;5.20;99.90;;;;;;5082456;28;20196;-73
2021/12/19 07:48:58;;;;;;;4.93;3.08;;;5.20;99.90;;;;;;5084065;28;20062;-73
2021/12/19 07:51:24;;;;;;;5.30;2.97;;;5.20;99.90;;;;;;5083582;28;20219;-73
2021/12/19 07:53:49;;;;;;;5.15;2.88;;;5.20;99.90;;;;;;5082608;28;20031;-73
2021/12/19 07:56:15;;;;;;;3.88;2.42;;;5.20;99.90;;;;;;5083486;28;20028;-72
2021/12/19 07:58:40;;;;;;;4.43;2.70;;;5.20;99.90;;;;;;5065716;28;20021;-72
2021/12/19 08:01:06;;;;;;;5.80;3.05;;;5.20;99.90;;;;;;5085644;28;20317;-73
2021/12/19 08:03:32;;;;;;;5.15;3.10;;;5.20;99.90;;;;;;5070196;28;20211;-73
2021/12/19 08:05:57;;;;;;;6.15;3.63;;;5.20;99.90;;;;;;5086829;28;20016;-73
2021/12/19 08:08:27;;;;;;;4.38;2.88;;;5.20;99.90;;;;;;5086958;28;20203;-73
2021/12/19 08:13:39;;;;;;;3.92;2.80;;;5.10;99.90;;;;;;5073138;28;20028;-73
2021/12/19 08:16:05;;;;;;;4.95;3.05;;;5.00;99.90;;;;;;5087688;28;20027;-73
2021/12/19 08:18:30;;;;;;;6.68;3.28;;;5.00;99.90;;;;;;5087868;28;20101;-74
2021/12/19 08:20:56;;;;;;;5.97;3.30;;;5.00;99.90;;;;;;5087188;28;20040;-73
2021/12/19 08:23:22;;;;;;;4.63;3.00;;;5.00;99.90;;;;;;5087796;28;20047;-73
2021/12/19 08:25:47;;;;;;;5.72;3.25;;;5.00;99.90;;;;;;5069730;28;20084;-74
2021/12/19 08:28:13;;;;;;;3.58;2.70;;;4.90;99.90;;;;;;5087272;28;20135;-74
2021/12/19 08:30:39;;;;;;;6.60;3.65;;;4.90;99.90;;;;;;5087081;28;20020;-73
2021/12/19 08:33:04;;;;;;;6.47;3.58;;;4.90;99.90;;;;;;5087396;28;20039;-74
2021/12/19 08:35:30;;;;;;;7.53;3.95;;;5.00;99.90;;;;;;5086113;28;20028;-73
2021/12/19 08:37:56;;;;;;;6.32;3.75;;;5.00;99.90;;;;;;5087632;28;20020;-74
2021/12/19 08:40:23;;;;;;;7.32;4.03;;;5.10;99.90;;;;;;5086211;28;20024;-73
2021/12/19 08:42:50;;;;;;;4.50;3.38;;;5.10;99.90;;;;;;5087304;28;20028;-73
2021/12/19 08:45:16;;;;;;;5.97;3.47;;;5.10;99.90;;;;;;5087159;28;20017;-74
2021/12/19 08:47:43;;;;;;;7.30;3.92;;;5.10;99.90;;;;;;5085533;28;20236;-73
2021/12/19 08:50:09;;;;;;;6.35;3.92;;;5.10;99.90;;;;;;5085996;28;20028;-73
2021/12/19 08:52:35;;;;;;;5.50;3.83;;;5.10;99.90;;;;;;5087210;28;20024;-73
2021/12/19 08:55:03;;;;;;;4.85;3.50;;;5.10;99.90;;;;;;5085620;28;20030;-73
2021/12/19 08:57:29;;;;;;;4.85;3.25;;;5.10;99.90;;;;;;5085285;28;20239;-73
2021/12/19 08:59:55;;;;;;;5.72;3.72;;;5.10;99.90;;;;;;5087221;28;20031;-73
2021/12/19 09:02:21;;;;;;;4.88;3.35;;;5.10;99.90;;;;;;5086835;28;20066;-73
2021/12/19 09:04:46;;;;;;;5.20;3.17;;;5.10;99.90;;;;;;5095880;28;20022;-74
2021/12/19 09:07:14;;;;;;;5.05;3.20;;;5.10;99.90;;;;;;5098826;28;20035;-73
2021/12/19 09:09:40;;;;;;;6.05;3.90;;;5.10;99.90;;;;;;5098011;28;20013;-74
2021/12/19 09:12:06;;;;;;;6.97;3.40;;;5.10;99.90;;;;;;5094330;28;20027;-74
2021/12/19 09:14:31;;;;;;;6.93;4.15;;;5.10;99.90;;;;;;5092542;28;20024;-73
2021/12/19 09:16:57;;;;;;;7.28;4.28;;;5.10;99.90;;;;;;5086686;28;20021;-73
2021/12/19 09:19:25;;;;;;;8.85;4.38;;;5.20;99.90;;;;;;5086585;28;20379;-73
2021/12/19 09:21:51;;;;;;;7.85;4.28;;;5.30;99.90;;;;;;5086415;28;20066;-73
2021/12/19 09:24:16;;;;;;;6.43;4.35;;;5.50;99.90;;;;;;5086639;28;20024;-73
2021/12/19 09:26:43;;;;;;;6.53;4.47;;;5.50;99.90;;;;;;5084577;28;20142;-73
2021/12/19 09:29:09;;;;;;;9.65;5.72;;;5.50;99.90;;;;;;5085235;28;20313;-75
2021/12/19 09:31:34;;;;;;;9.30;5.95;;;5.30;99.90;;;;;;5086319;28;20038;-74
2021/12/19 09:34:00;;;;;;;12.25;5.18;;;5.30;99.90;;;;;;5086390;28;20032;-75
2021/12/19 09:36:26;;;;;;;7.38;4.75;;;5.30;99.90;;;;;;5085810;28;20334;-74
2021/12/19 09:38:52;;;;;;;9.35;3.80;;;5.20;99.90;;;;;;5086243;28;20303;-74
2021/12/19 09:41:28;;;;;;;4.78;3.42;;;5.10;99.90;;;;;;5068462;28;20028;-73
2021/12/19 09:43:56;;;;;;;15.13;4.22;;;5.10;99.90;;;;;;5085253;28;20020;-74
2021/12/19 09:46:23;;;;;;;8.07;3.53;;;5.00;99.90;;;;;;5085841;28;20074;-74
2021/12/19 09:48:49;;;;;;;30.67;4.80;;;4.90;99.90;;;;;;5085861;28;20028;-74
2021/12/19 09:51:17;;;;;;;27.42;5.47;;;4.90;99.90;;;;;;5086117;28;20242;-73
2021/12/19 09:53:43;;;;;;;15.07;4.20;;;4.80;99.90;;;;;;5084652;28;20016;-73
2021/12/19 09:56:11;;;;;;;32.05;4.20;;;4.80;99.90;;;;;;5084432;28;20032;-73
2021/12/19 09:58:38;;;;;;;11.43;4.00;;;4.70;99.90;;;;;;5083699;28;20275;-73
2021/12/19 10:01:06;;;;;;;26.90;4.60;;;4.70;99.90;;;;;;5066323;28;20100;-73
2021/12/19 10:03:32;;;;;;;7.75;3.90;;;4.70;99.90;;;;;;5084271;28;20094;-73
2021/12/19 10:06:20;;;;;;;4.53;3.17;;;4.70;99.90;;;;;;5085429;28;20035;-72
2021/12/19 10:08:49;;;;;;;5.43;3.40;;;4.70;99.90;;;;;;5086274;28;20021;-73
2021/12/19 10:11:47;;;;;;;5.07;3.30;;;4.70;99.90;;;;;;5087124;28;20193;-73
2021/12/19 10:14:33;;;;;;;8.88;3.22;;;4.80;99.90;;;;;;5085282;28;20020;-72
2021/12/19 10:17:07;;;;;;;4.80;3.15;;;4.80;99.90;;;;;;5069544;28;20030;-73
2021/12/19 10:19:54;;;;;;;4.30;2.70;;;5.00;99.90;;;;;;5085006;28;20089;-72
2021/12/19 10:22:41;;;;;;;5.35;2.72;;;5.00;99.90;;;;;;5084680;28;20024;-73
2021/12/19 10:25:22;;;;;;;3.08;2.42;;;5.00;99.90;;;;;;5084081;28;20079;-74
2021/12/19 10:27:54;;;;;;;2.42;2.05;;;4.90;99.90;;;;;;5082560;28;20200;-73
2021/12/19 10:30:30;;;;;;;3.75;2.75;;;4.90;99.90;;;;;;5084131;28;20087;-74
2021/12/19 10:32:58;;;;;;;6.35;2.40;;;4.80;99.90;;;;;;5066915;28;20208;-74
2021/12/19 10:35:40;;;;;;;4.57;2.75;;;4.90;99.90;;;;;;5082332;28;20028;-73
2021/12/19 10:38:16;;;;;;;6.18;2.63;;;5.00;99.90;;;;;;5064957;28;20032;-72
2021/12/19 10:41:21;;;;;;;8.48;3.35;;;5.10;99.90;;;;;;5082730;28;20036;-75
2021/12/19 10:43:57;;;;;;;7.43;3.63;;;5.10;99.90;;;;;;5081199;28;20016;-72
2021/12/19 10:46:44;;;;;;;8.13;3.85;;;5.30;99.90;;;;;;5081458;28;20059;-75
2021/12/19 10:49:32;;;;;;;6.45;3.90;;;5.30;99.90;;;;;;5081859;28;20276;-72
2021/12/19 10:52:01;;;;;;;6.03;3.90;;;5.40;99.90;;;;;;5083035;28;20050;-74
2021/12/19 10:54:27;;;;;;;6.15;3.30;;;5.50;99.90;;;;;;5081399;28;20107;-74
2021/12/19 10:57:07;;;;;;;14.20;3.63;;;5.60;99.90;;;;;;5082729;28;20027;-74
2021/12/19 10:59:34;;;;;;;12.93;4.03;;;5.50;99.90;;;;;;5082003;28;20311;-74
2021/12/19 11:02:00;;;;;;;16.27;4.22;;;5.50;99.90;;;;;;5082585;28;20346;-75
2021/12/19 11:04:27;;;;;;;8.02;4.18;;;5.50;99.90;;;;;;5083556;28;20029;-74
2021/12/19 11:06:54;;;;;;;4.32;2.80;;;5.60;99.90;;;;;;5080325;28;20287;-75
2021/12/19 11:09:24;;;;;;;4.85;3.25;;;5.50;99.90;;;;;;5064844;28;20092;-74
2021/12/19 11:11:58;;;;;;;3.15;2.35;;;5.50;99.90;;;;;;5081239;28;20020;-75
2021/12/19 11:14:32;;;;;;;4.35;3.20;;;5.50;99.90;;;;;;5081630;28;20020;-75
2021/12/19 11:17:02;;;;;;;5.07;3.40;;;5.60;99.90;;;;;;5082244;28;20030;-72
2021/12/19 11:19:29;;;;;;;4.68;3.05;;;5.60;99.90;;;;;;5081217;28;20044;-72
2021/12/19 11:21:55;;;;;;;6.40;4.10;;;5.70;99.90;;;;;;5081181;28;20331;-73
2021/12/19 11:24:22;;;;;;;4.93;3.00;;;5.80;99.90;;;;;;5082982;28;20096;-73
2021/12/19 11:26:52;;;;;;;3.75;2.67;;;5.80;99.90;;;;;;5082605;28;20016;-73
2021/12/19 11:29:18;;;;;;;3.45;2.50;;;5.80;99.90;;;;;;5081728;28;20012;-74
2021/12/19 11:31:47;;;;;;;3.35;2.47;;;5.90;99.90;;;;;;5080970;28;20024;-75
2021/12/19 11:34:36;;;;;;;3.58;2.65;;;5.90;99.90;;;;;;5081744;28;20127;-75
2021/12/19 11:37:42;;;;;;;4.47;3.00;;;6.00;99.90;;;;;;5065110;28;20032;-73
2021/12/19 11:40:14;;;;;;;4.35;3.22;;;6.00;99.90;;;;;;5081904;28;20262;-74
2021/12/19 11:42:41;;;;;;;4.43;3.35;;;5.90;99.90;;;;;;5084209;28;20075;-73
2021/12/19 11:45:32;;;;;;;5.28;3.22;;;6.00;99.90;;;;;;5082747;28;20084;-72
2021/12/19 11:48:07;;;;;;;4.15;3.13;;;5.90;99.90;;;;;;5080809;28;20047;-76
2021/12/19 11:50:45;;;;;;;4.18;3.50;;;5.90;99.90;;;;;;5083780;28;20031;-73
2021/12/19 11:53:28;;;;;;;5.72;3.97;;;6.00;99.90;;;;;;5082942;28;20024;-73
2021/12/19 11:56:09;;;;;;;8.02;4.05;;;6.00;99.90;;;;;;5084100;28;20300;-73
2021/12/19 11:58:45;;;;;;;5.72;3.90;;;6.20;99.90;;;;;;5083950;28;20025;-73
2021/12/19 12:01:29;;;;;;;6.47;3.92;;;6.30;99.90;;;;;;5083920;28;20029;-74
2021/12/19 12:03:58;;;;;;;8.93;6.05;;;6.40;99.90;;;;;;5082656;28;20382;-73
2021/12/19 12:06:28;;;;;;;10.52;6.68;;;6.40;99.90;;;;;;5083899;28;20066;-73
2021/12/19 12:09:21;;;;;;;8.45;5.70;;;6.20;99.90;;;;;;5082558;28;20020;-74
2021/12/19 12:12:08;;;;;;;;;;;6.30;99.90;;;;;;5082345;28;20028;-73
2021/12/19 12:14:38;;;;;;;5.32;3.70;;;6.30;99.90;;;;;;5096060;28;19915;-73
2021/12/19 12:17:11;;;;;;;5.15;3.80;;;6.30;99.90;;;;;;5082419;28;20033;-74
2021/12/19 12:19:50;;;;;;;4.07;3.15;;;6.20;99.90;;;;;;5097970;28;20045;-74
2021/12/19 12:22:37;;;;;;;4.60;3.20;;;6.20;99.90;;;;;;5096932;28;20041;-74
2021/12/19 12:25:15;;;;;;;4.85;3.53;;;6.30;99.90;;;;;;5096729;28;20019;-74
2021/12/19 12:28:02;;;;;;;5.13;2.95;;;6.30;99.90;;;;;;5085195;28;20331;-74
2021/12/19 12:30:45;;;;;;;7.78;4.43;;;6.40;99.90;;;;;;5082246;28;20039;-74
2021/12/19 12:33:14;;;;;;;5.93;4.25;;;6.40;99.90;;;;;;5068307;28;20028;-73
2021/12/19 12:35:42;;;;;;;7.22;4.45;;;6.40;99.90;;;;;;5082585;28;20028;-75
2021/12/19 12:38:10;;;;;;;5.93;4.10;;;6.40;99.90;;;;;;5082632;28;20093;-73
2021/12/19 12:40:51;;;;;;;6.80;4.00;;;6.20;99.90;;;;;;5083188;28;20033;-75
2021/12/19 12:43:31;;;;;;;7.87;5.30;;;6.10;99.90;;;;;;5082686;28;20026;-73
2021/12/19 12:46:18;;;;;;;8.00;5.07;;;6.10;99.90;;;;;;5065781;28;20029;-73
2021/12/19 12:49:05;;;;;;;12.48;7.65;;;6.20;99.90;;;;;;5086034;28;20330;-73
2021/12/19 12:52:04;;;;;;;11.27;6.45;;;6.30;99.90;;;;;;5086010;28;20066;-73
2021/12/19 12:54:35;;;;;;;12.85;8.10;;;6.40;99.90;;;;;;5086359;28;20020;-74
2021/12/19 12:57:11;;;;;;;18.10;9.43;;;6.50;99.90;;;;;;5085579;28;20096;-74
2021/12/19 12:59:40;;;;;;;14.63;7.80;;;6.60;99.90;;;;;;5086936;28;20204;-74
2021/12/19 13:02:13;;;;;;;12.18;7.53;;;6.80;99.90;;;;;;5086745;28;20051;-74
2021/12/19 13:04:43;;;;;;;9.05;6.03;;;6.80;99.90;;;;;;5086243;28;20017;-74
2021/12/19 13:07:18;;;;;;;8.35;5.35;;;6.80;99.90;;;;;;5085674;28;20031;-73
2021/12/19 13:09:46;;;;;;;9.93;6.60;;;6.70;99.90;;;;;;5086817;28;20038;-73
2021/12/19 13:12:25;;;;;;;18.20;8.90;;;6.80;99.90;;;;;;5085651;28;20020;-73
2021/12/19 13:14:55;;;;;;;14.55;9.35;;;6.80;99.90;;;;;;5068867;28;20055;-74
2021/12/19 13:17:24;;;;;;;8.13;6.20;;;6.70;99.90;;;;;;5085607;28;20027;-75
2021/12/19 13:20:01;;;;;;;9.25;7.15;;;6.70;99.90;;;;;;5085319;28;20107;-74
2021/12/19 13:22:49;;;;;;;8.52;6.50;;;6.60;99.90;;;;;;5086754;28;20109;-74
2021/12/19 13:25:19;;;;;;;8.73;6.25;;;6.30;99.90;;;;;;5085556;28;20043;-74
2021/12/19 13:27:50;;;;;;;10.50;6.50;;;6.30;99.90;;;;;;5085043;28;20020;-74
2021/12/19 13:30:21;;;;;;;10.23;6.85;;;6.30;99.90;;;;;;5086409;28;20028;-75
2021/12/19 13:32:53;;;;;;;8.82;5.93;;;6.40;99.90;;;;;;5086462;28;20024;-74
2021/12/19 13:35:56;;;;;;;9.75;6.05;;;6.40;99.90;;;;;;5086585;28;20020;-74
2021/12/19 13:38:27;;;;;;;7.47;5.10;;;6.30;99.90;;;;;;5085346;28;20020;-75
2021/12/19 13:41:10;;;;;;;7.28;4.75;;;6.30;99.90;;;;;;5084778;28;20188;-74
2021/12/19 13:43:39;;;;;;;7.25;4.85;;;6.40;99.90;;;;;;5086345;28;20205;-74
2021/12/19 13:46:09;;;;;;;8.02;5.15;;;6.40;99.90;;;;;;5084872;28;20042;-74
2021/12/19 13:48:37;;;;;;;6.47;4.22;;;6.50;99.90;;;;;;5068675;28;20016;-73
2021/12/19 13:51:21;;;;;;;8.02;5.03;;;6.60;99.90;;;;;;5084863;28;20248;-74
2021/12/19 13:53:49;;;;;;;5.95;4.18;;;6.70;99.90;;;;;;5085996;28;20024;-74
2021/12/19 13:56:18;;;;;;;8.38;5.05;;;6.60;99.90;;;;;;5084631;28;20024;-73